createdAt,value
2022-08-18T00:00:20.583Z,17.81
2022-08-18T00:05:22.040Z,17.72
2022-08-18T00:10:23.383Z,17.65
2022-08-18T00:15:24.833Z,17.57
2022-08-18T00:20:26.275Z,17.50
2022-08-18T00:25:27.636Z,17.36
2022-08-18T00:30:29.056Z,17.31
2022-08-18T00:35:32.372Z,17.22
2022-08-18T00:40:42.190Z,17.18
2022-08-18T00:45:43.816Z,17.17
2022-08-18T00:50:56.830Z,17.16
2022-08-18T00:55:59.981Z,17.00
2022-08-18T01:01:03.673Z,16.87
2022-08-18T01:06:28.297Z,16.78
2022-08-18T01:11:32.333Z,16.69
2022-08-18T01:16:57.000Z,16.57
2022-08-18T01:22:04.128Z,16.43
2022-08-18T01:27:05.478Z,16.35
2022-08-18T01:32:06.821Z,16.26
2022-08-18T01:37:10.089Z,16.12
2022-08-18T01:42:12.466Z,15.96
2022-08-18T01:47:14.319Z,15.91
2022-08-18T01:52:19.345Z,15.90
2022-08-18T01:57:20.981Z,15.85
2022-08-18T02:02:25.010Z,15.76
2022-08-18T02:07:34.329Z,15.68
2022-08-18T02:12:38.398Z,15.61
2022-08-18T02:17:41.097Z,15.55
2022-08-18T02:22:42.938Z,15.50
2022-08-18T02:27:44.703Z,15.38
2022-08-18T02:32:46.108Z,15.28
2022-08-18T02:37:48.147Z,15.28
2022-08-18T02:42:52.593Z,15.33
2022-08-18T02:47:54.597Z,15.22
2022-08-18T02:52:56.027Z,15.22
2022-08-18T02:57:57.376Z,15.22
2022-08-18T03:02:58.818Z,15.24
2022-08-18T03:08:00.520Z,15.10
2022-08-18T03:13:02.345Z,14.94
2022-08-18T03:18:03.747Z,14.95
2022-08-18T03:23:10.117Z,14.91
2022-08-18T03:28:12.300Z,14.86
2022-08-18T03:33:13.645Z,14.79
2022-08-18T03:38:14.997Z,14.73
2022-08-18T03:43:25.851Z,14.75
2022-08-18T03:48:40.800Z,14.66
2022-08-18T03:53:42.401Z,14.64
2022-08-18T03:58:45.871Z,14.62
2022-08-18T04:03:48.395Z,14.63
2022-08-18T04:08:52.177Z,14.54
2022-08-18T04:13:53.953Z,14.56
2022-08-18T04:19:03.072Z,14.58
2022-08-18T04:24:05.282Z,14.70
2022-08-18T04:29:07.512Z,14.86
2022-08-18T04:34:09.344Z,15.05
2022-08-18T04:39:11.967Z,15.00
2022-08-18T04:44:13.372Z,15.06
2022-08-18T04:49:15.204Z,15.19
2022-08-18T04:54:16.556Z,15.31
2022-08-18T04:59:18.400Z,15.33
2022-08-18T05:04:19.769Z,15.34
2022-08-18T05:09:22.673Z,15.54
2022-08-18T05:14:25.057Z,15.74
2022-08-18T05:19:26.868Z,15.79
2022-08-18T05:24:34.237Z,15.87
2022-08-18T05:29:45.917Z,16.26
2022-08-18T05:34:50.000Z,16.43
2022-08-18T05:40:00.102Z,16.55
2022-08-18T05:45:03.565Z,16.56
2022-08-18T05:50:17.232Z,16.66
2022-08-18T05:55:55.717Z,16.85
2022-08-18T06:01:00.515Z,17.11
2022-08-18T06:06:04.951Z,17.08
2022-08-18T06:11:06.308Z,17.16
2022-08-18T06:16:28.405Z,17.23
2022-08-18T06:21:49.349Z,17.31
2022-08-18T06:27:02.892Z,17.54
2022-08-18T06:32:05.354Z,17.71
2022-08-18T06:37:17.946Z,17.70
2022-08-18T06:42:21.641Z,17.74
2022-08-18T06:47:26.315Z,17.88
2022-08-18T06:52:32.233Z,17.97
2022-08-18T06:57:52.294Z,18.03
2022-08-18T07:03:01.200Z,18.26
2022-08-18T07:08:10.410Z,18.40
2022-08-18T07:13:30.110Z,18.33
2022-08-18T07:18:31.687Z,18.52
2022-08-18T07:23:40.952Z,18.39
2022-08-18T07:28:50.402Z,18.73
2022-08-18T07:34:03.609Z,18.70
2022-08-18T07:39:09.132Z,18.99
2022-08-18T07:44:19.510Z,19.22
2022-08-18T07:49:23.939Z,19.45
2022-08-18T07:54:49.928Z,19.53
2022-08-18T08:00:00.494Z,19.44
2022-08-18T08:05:10.488Z,19.46
2022-08-18T08:10:12.031Z,19.56
2022-08-18T08:15:27.180Z,19.78
2022-08-18T08:20:36.902Z,19.43
2022-08-18T08:25:52.480Z,19.48
2022-08-18T08:31:18.986Z,19.28
2022-08-18T08:36:33.080Z,19.41
2022-08-18T08:41:41.232Z,19.55
2022-08-18T08:46:47.503Z,19.41
2022-08-18T08:51:56.770Z,19.55
2022-08-18T08:57:00.460Z,20.00
2022-08-18T09:02:01.862Z,20.41
2022-08-18T09:07:03.248Z,20.48
2022-08-18T09:12:13.740Z,20.47
2022-08-18T09:17:15.077Z,20.53
2022-08-18T09:22:19.423Z,20.57
2022-08-18T09:27:23.892Z,20.48
2022-08-18T09:32:26.030Z,20.45
2022-08-18T09:37:28.983Z,20.56
2022-08-18T09:42:49.790Z,20.62
2022-08-18T09:47:54.788Z,20.50
2022-08-18T09:53:02.308Z,20.75
2022-08-18T09:58:15.128Z,20.73
2022-08-18T10:03:25.484Z,20.93
2022-08-18T10:08:39.400Z,21.04
2022-08-18T10:13:49.492Z,20.69
2022-08-18T10:19:14.582Z,20.61
2022-08-18T10:24:36.077Z,20.41
2022-08-18T10:29:40.967Z,20.98
2022-08-18T10:40:09.985Z,20.90
2022-08-18T10:45:24.773Z,20.76
2022-08-18T10:50:29.145Z,20.69
2022-08-18T10:55:48.863Z,21.08
2022-08-18T11:01:00.960Z,21.60
2022-08-18T11:06:18.299Z,22.35
2022-08-18T11:11:34.483Z,22.09
2022-08-18T11:16:39.489Z,22.94
2022-08-18T11:21:44.563Z,23.91
2022-08-18T11:26:53.194Z,23.80
2022-08-18T11:31:59.620Z,24.31
2022-08-18T11:37:08.925Z,24.46
2022-08-18T11:42:15.895Z,24.21
2022-08-18T11:47:27.987Z,23.57
2022-08-18T11:52:34.305Z,23.25
2022-08-18T11:57:50.085Z,23.25
2022-08-18T12:03:01.112Z,22.78
2022-08-18T12:08:03.399Z,22.78
2022-08-18T12:13:07.755Z,23.00
2022-08-18T12:18:10.794Z,23.63
2022-08-18T12:23:21.280Z,24.36
2022-08-18T12:28:28.174Z,24.72
2022-08-18T12:33:34.587Z,25.31
2022-08-18T12:44:13.056Z,25.96
2022-08-18T12:49:16.662Z,26.40
2022-08-18T12:54:18.446Z,25.63
2022-08-18T12:59:21.630Z,26.29
2022-08-18T13:04:26.887Z,26.07
2022-08-18T13:09:35.160Z,26.58
2022-08-18T13:14:54.743Z,26.03
2022-08-18T13:19:56.088Z,26.12
2022-08-18T13:24:57.434Z,26.00
2022-08-18T13:29:58.780Z,26.45
2022-08-18T13:35:00.361Z,25.50
2022-08-18T13:40:05.056Z,26.20
2022-08-18T13:45:23.357Z,26.54
2022-08-18T13:50:29.813Z,26.63
2022-08-18T13:55:31.446Z,26.54
2022-08-18T14:00:33.774Z,26.48
2022-08-18T14:05:51.773Z,25.89
2022-08-18T14:10:58.073Z,26.49
2022-08-18T14:16:01.190Z,26.57
2022-08-18T14:21:23.562Z,26.24
2022-08-18T14:26:43.653Z,26.12
2022-08-18T14:31:45.648Z,25.53
2022-08-18T14:36:48.545Z,25.60
2022-08-18T14:41:55.929Z,25.68
2022-08-18T14:46:57.644Z,25.41
2022-08-18T14:52:00.711Z,25.90
2022-08-18T14:57:02.761Z,26.15
2022-08-18T15:02:05.265Z,26.42
2022-08-18T15:07:12.747Z,26.01
2022-08-18T15:12:15.312Z,26.59
2022-08-18T15:17:16.980Z,26.60
2022-08-18T15:22:39.772Z,26.27
2022-08-18T15:27:42.971Z,26.11
2022-08-18T15:32:45.652Z,25.70
2022-08-18T15:37:51.120Z,25.52
2022-08-18T15:42:56.805Z,25.06
2022-08-18T15:47:58.148Z,25.05
2022-08-18T15:53:00.748Z,24.84
2022-08-18T15:58:03.618Z,24.68
2022-08-18T16:03:14.339Z,24.58
2022-08-18T16:08:17.839Z,24.40
2022-08-18T16:13:19.348Z,24.39
2022-08-18T16:18:23.615Z,24.38
2022-08-18T16:23:24.959Z,24.48
2022-08-18T16:28:34.407Z,24.50
2022-08-18T16:33:36.687Z,24.49
2022-08-18T16:38:38.442Z,24.47
2022-08-18T16:43:40.047Z,24.60
2022-08-18T16:48:41.501Z,24.63
2022-08-18T16:53:47.264Z,24.51
2022-08-18T16:59:07.355Z,24.43
2022-08-18T17:04:13.545Z,24.50
2022-08-18T17:09:22.083Z,24.40
2022-08-18T17:14:25.404Z,24.21
2022-08-18T17:19:29.465Z,24.12
2022-08-18T17:24:31.945Z,24.00
2022-08-18T17:29:43.934Z,23.86
2022-08-18T17:34:51.800Z,23.75
2022-08-18T17:39:53.242Z,23.57
2022-08-18T17:45:04.240Z,23.44
2022-08-18T17:50:27.346Z,23.33
2022-08-18T17:55:31.375Z,23.15
2022-08-18T18:00:33.149Z,23.15
2022-08-18T18:05:40.851Z,22.92
2022-08-18T18:11:04.372Z,22.79
2022-08-18T18:16:23.304Z,22.66
2022-08-18T18:22:00.445Z,22.54
2022-08-18T18:26:48.095Z,22.44
2022-08-18T18:32:01.487Z,22.32
2022-08-18T18:37:02.872Z,22.23
2022-08-18T18:42:18.393Z,22.11
2022-08-18T18:47:29.360Z,21.95
2022-08-18T18:52:49.236Z,21.78
2022-08-18T18:57:59.709Z,21.63
2022-08-18T19:03:02.731Z,21.53
2022-08-18T19:08:24.001Z,21.27
2022-08-18T19:13:35.024Z,21.28
2022-08-18T19:18:44.499Z,21.22
2022-08-18T19:24:11.000Z,20.97
2022-08-18T19:29:16.399Z,20.75
2022-08-18T19:34:30.017Z,20.56
2022-08-18T19:39:37.699Z,20.43
2022-08-18T19:44:55.512Z,20.35
2022-08-18T19:50:09.031Z,20.26
2022-08-18T19:55:32.947Z,19.95
2022-08-18T20:00:40.171Z,19.79
2022-08-18T20:06:14.218Z,19.70
2022-08-18T20:11:42.091Z,19.58
2022-08-18T20:17:04.039Z,19.43
2022-08-18T20:22:10.573Z,19.25
2022-08-18T20:27:27.865Z,19.10
2022-08-18T20:32:36.431Z,18.97
2022-08-18T20:37:38.071Z,18.76
2022-08-18T20:42:43.620Z,18.55
2022-08-18T20:48:15.828Z,18.42
2022-08-18T20:53:19.935Z,18.34
2022-08-18T20:58:25.869Z,18.29
2022-08-18T21:03:40.919Z,18.30
2022-08-18T21:08:51.083Z,18.21
2022-08-18T21:13:55.318Z,18.13
2022-08-18T21:19:01.018Z,18.00
2022-08-18T21:24:03.648Z,17.90
2022-08-18T21:29:08.789Z,17.84
2022-08-18T21:34:28.888Z,17.75
2022-08-18T21:39:30.273Z,17.65
2022-08-18T21:44:42.520Z,17.62
2022-08-18T21:50:16.420Z,17.59
2022-08-18T21:55:25.194Z,17.52
2022-08-18T22:00:28.444Z,17.53
2022-08-18T22:05:58.120Z,17.50
2022-08-18T22:11:59.533Z,17.33
2022-08-18T22:16:48.599Z,17.25
2022-08-18T22:21:58.226Z,17.23
2022-08-18T22:27:04.364Z,17.21
2022-08-18T22:32:05.973Z,17.16
2022-08-18T22:37:19.270Z,17.12
2022-08-18T22:42:23.180Z,17.16
2022-08-18T22:47:24.792Z,17.06
2022-08-18T22:52:29.612Z,17.07
2022-08-18T22:57:34.467Z,17.11
2022-08-18T23:02:37.767Z,17.15
2022-08-18T23:07:39.222Z,17.26
2022-08-18T23:12:40.801Z,17.35
2022-08-18T23:17:43.441Z,17.11
2022-08-18T23:22:45.410Z,17.02
2022-08-18T23:27:46.793Z,16.84
2022-08-18T23:32:48.351Z,16.77
2022-08-18T23:37:49.740Z,16.70
2022-08-18T23:42:51.530Z,16.67
2022-08-18T23:47:53.060Z,16.62
2022-08-18T23:53:01.055Z,16.60
2022-08-18T23:58:02.447Z,16.50
